Time;durP1;ratioP1;P1;durP2;ratioP2;P2;SDS_P1;SDS_P2;PMS_P1;PMS_P2;Temp;Humidity;BMP_temperature;BMP_pressure;BME280_temperature;BME280_humidity;BME280_pressure;Samples;Min_cycle;Max_cycle;Signal;HPM_P1;HPM_P2
2022/09/29 00:00:31;;;;;;;15.55;11.30;;;;;;;6.89;95.44;99919.22;5080578;28;20051;-58
2022/09/29 00:02:56;;;;;;;16.40;10.98;;;;;;;6.86;95.30;99913.31;5052965;28;20086;-59
2022/09/29 00:05:22;;;;;;;18.27;10.95;;;;;;;6.80;95.08;99906.03;5077237;28;20629;-57
2022/09/29 00:07:47;;;;;;;18.67;11.10;;;;;;;6.89;95.32;99919.22;5071989;28;20032;-58
2022/09/29 00:10:12;;;;;;;15.20;10.75;;;;;;;6.83;95.61;99921.53;5063519;28;20073;-58
2022/09/29 00:12:38;;;;;;;16.02;11.02;;;;;;;6.78;95.35;99913.28;5073462;28;20353;-57
2022/09/29 00:15:04;;;;;;;15.68;10.98;;;;;;;6.79;94.89;99919.38;5062605;28;20044;-58
2022/09/29 00:17:29;;;;;;;15.50;11.48;;;;;;;6.73;94.05;99916.38;5078673;28;20403;-56
2022/09/29 00:19:54;;;;;;;14.05;10.60;;;;;;;6.74;94.56;99914.59;5079671;28;20039;-57
2022/09/29 00:22:20;;;;;;;14.38;10.68;;;;;;;6.72;94.81;99913.94;5071280;28;20279;-57
2022/09/29 00:24:48;;;;;;;15.65;10.93;;;;;;;6.72;95.20;99914.72;5066325;28;20048;-57
2022/09/29 00:27:17;;;;;;;15.77;10.90;;;;;;;6.69;94.33;99908.97;5060964;28;20628;-57
2022/09/29 00:29:43;;;;;;;15.23;10.57;;;;;;;6.68;94.41;99917.84;5074872;28;20040;-58
2022/09/29 00:32:09;;;;;;;16.15;11.10;;;;;;;6.64;94.41;99916.50;5086838;28;20028;-58
2022/09/29 00:34:34;;;;;;;16.63;11.05;;;;;;;6.61;94.84;99906.31;5071928;28;20039;-58
2022/09/29 00:36:59;;;;;;;16.55;11.23;;;;;;;6.57;95.28;99903.16;5079004;28;20038;-57
2022/09/29 00:39:25;;;;;;;16.15;10.85;;;;;;;6.57;95.30;99906.59;5080591;28;20063;-58
2022/09/29 00:41:50;;;;;;;18.65;11.27;;;;;;;6.54;95.10;99909.56;5091193;28;20035;-57
2022/09/29 00:44:18;;;;;;;15.23;11.13;;;;;;;6.57;95.20;99911.88;5072573;28;21243;-59
2022/09/29 00:46:57;;;;;;;17.27;10.70;;;;;;;6.58;95.38;99910.88;5060627;28;20415;-58
2022/09/29 00:49:25;;;;;;;17.67;11.32;;;;;;;6.51;94.49;99911.69;5075900;28;20064;-57
2022/09/29 00:52:06;;;;;;;16.10;11.57;;;;;;;6.47;95.37;99911.19;5080778;28;20115;-58
2022/09/29 00:54:37;;;;;;;18.35;11.13;;;;;;;6.51;95.51;99901.97;5062454;28;20033;-58
2022/09/29 00:57:05;;;;;;;15.70;11.07;;;;;;;6.51;95.33;99912.50;5067308;28;20461;-57
2022/09/29 00:59:46;;;;;;;14.48;10.68;;;;;;;6.46;95.33;99914.78;5069567;28;20098;-57
2022/09/29 01:02:13;;;;;;;15.45;11.43;;;;;;;6.43;95.20;99909.84;5084577;28;20342;-60
2022/09/29 01:04:39;;;;;;;16.33;11.23;;;;;;;6.44;95.35;99909.69;5071321;28;20025;-58
2022/09/29 01:07:05;;;;;;;16.23;11.40;;;;;;;6.40;94.71;99904.88;5060851;28;20051;-57
2022/09/29 01:09:34;;;;;;;17.17;11.20;;;;;;;6.39;95.22;99905.88;5061172;28;20028;-57
2022/09/29 01:12:00;;;;;;;17.27;11.48;;;;;;;6.39;95.48;99905.88;5067877;28;20037;-59
2022/09/29 01:14:28;;;;;;;17.33;11.55;;;;;;;6.35;95.11;99907.19;5062433;28;20119;-56
2022/09/29 01:16:54;;;;;;;15.27;11.30;;;;;;;6.37;95.06;99905.22;5078871;28;20033;-57
2022/09/29 01:19:52;;;;;;;18.48;11.07;;;;;;;6.37;94.66;99910.47;5065378;28;20506;-59
2022/09/29 01:22:35;;;;;;;15.55;10.85;;;;;;;6.31;94.82;99901.38;5065022;28;20032;-59
2022/09/29 01:25:17;;;;;;;15.40;11.10;;;;;;;6.29;94.72;99903.34;5074030;28;20024;-57
2022/09/29 01:27:57;;;;;;;15.85;11.07;;;;;;;6.28;94.85;99906.97;5064959;28;20094;-57
2022/09/29 01:30:37;;;;;;;13.77;10.82;;;;;;;6.28;94.80;99902.50;5064478;28;20032;-56
2022/09/29 01:33:20;;;;;;;15.10;11.23;;;;;;;6.23;95.08;99907.44;5082541;28;20036;-57
2022/09/29 01:35:58;;;;;;;16.48;11.32;;;;;;;6.20;94.62;99910.38;5064438;28;20059;-60
2022/09/29 01:38:29;;;;;;;15.23;11.07;;;;;;;6.20;94.79;99913.00;5078598;28;20024;-59
2022/09/29 01:41:20;;;;;;;16.45;11.45;;;;;;;6.18;94.96;99914.97;5084375;28;20036;-56
2022/09/29 01:43:48;;;;;;;15.32;11.35;;;;;;;6.14;94.71;99911.00;5060154;28;20040;-57
2022/09/29 01:46:47;;;;;;;16.35;11.75;;;;;;;6.18;95.54;99912.34;5064863;28;20035;-58
2022/09/29 01:49:13;;;;;;;14.80;11.18;;;;;;;6.15;94.92;99907.38;5062367;28;20046;-57
2022/09/29 01:52:01;;;;;;;17.70;11.38;;;;;;;6.18;95.61;99912.34;5074693;28;20993;-58
2022/09/29 01:54:35;;;;;;;16.90;11.73;;;;;;;6.14;95.41;99916.25;5065903;28;20479;-59
2022/09/29 01:57:08;;;;;;;15.80;11.05;;;;;;;6.09;94.70;99914.09;5064098;28;20032;-60
2022/09/29 02:00:11;;;;;;;16.65;11.23;;;;;;;6.14;95.41;99914.47;5070023;28;20031;-56
2022/09/29 02:02:45;;;;;;;17.35;11.85;;;;;;;6.04;95.72;99917.22;4964225;28;20061;-57
2022/09/29 02:05:47;;;;;;;19.65;12.05;;;;;;;6.09;95.76;99916.72;5045607;28;20037;-58
2022/09/29 02:08:19;;;;;;;18.23;11.80;;;;;;;6.04;95.41;99917.22;5069822;28;20048;-59
2022/09/29 02:10:59;;;;;;;16.20;11.43;;;;;;;6.04;95.29;99911.94;5068615;28;20032;-56
2022/09/29 02:13:27;;;;;;;17.35;12.05;;;;;;;6.00;95.29;99910.56;5059742;28;20467;-57
2022/09/29 02:15:56;;;;;;;18.25;11.68;;;;;;;5.97;95.12;99916.13;5073894;28;20051;-56
2022/09/29 02:18:26;;;;;;;15.65;11.32;;;;;;;5.97;95.88;99915.31;5079359;28;20472;-57
2022/09/29 02:20:51;;;;;;;16.35;11.68;;;;;;;5.98;95.22;99916.97;5078648;28;20425;-57
2022/09/29 02:23:17;;;;;;;15.75;11.07;;;;;;;6.01;95.10;99914.00;5072297;28;20024;-57
2022/09/29 02:25:43;;;;;;;16.17;11.38;;;;;;;5.92;94.82;99918.38;5076314;28;20086;-57
2022/09/29 02:28:08;;;;;;;19.05;11.90;;;;;;;5.89;95.17;99909.03;5060270;28;20029;-58
2022/09/29 02:30:34;;;;;;;17.52;11.70;;;;;;;5.92;95.37;99918.38;5063181;28;20032;-59
2022/09/29 02:33:00;;;;;;;16.77;11.38;;;;;;;5.89;95.07;99921.34;5064964;28;20036;-58
2022/09/29 02:35:43;;;;;;;16.25;12.18;;;;;;;5.89;95.82;99918.69;5072133;28;20253;-59
2022/09/29 02:38:15;;;;;;;;;;;;;;;5.98;94.87;99923.06;5069100;28;20032;-57
2022/09/29 02:40:58;;;;;;;18.88;12.07;;;;;;;5.87;95.71;99915.41;5072576;28;19953;-58
2022/09/29 02:43:46;;;;;;;20.90;13.05;;;;;;;5.85;96.24;99915.56;5060398;28;20036;-59
2022/09/29 02:46:21;;;;;;;17.27;12.13;;;;;;;5.82;95.94;99912.41;5061606;28;20044;-59
2022/09/29 02:49:16;;;;;;;19.48;12.48;;;;;;;5.85;96.11;99917.34;5067058;28;20039;-57
2022/09/29 02:51:49;;;;;;;19.52;12.38;;;;;;;5.76;95.36;99921.72;5082652;28;20068;-58
2022/09/29 02:54:24;;;;;;;17.45;12.88;;;;;;;5.78;95.06;99917.97;5066728;28;20115;-56
2022/09/29 02:57:17;;;;;;;18.00;12.13;;;;;;;5.77;95.03;99913.69;5083181;28;20039;-58
2022/09/29 02:59:54;;;;;;;18.38;12.50;;;;;;;5.72;95.75;99918.56;5082497;28;20044;-56
2022/09/29 03:02:26;;;;;;;18.77;12.60;;;;;;;5.71;95.45;99922.19;5067970;28;20567;-57
2022/09/29 03:04:52;;;;;;;18.63;13.05;;;;;;;5.73;95.59;99920.22;5063170;28;20535;-57
2022/09/29 03:07:19;;;;;;;18.60;13.10;;;;;;;5.70;95.08;99920.53;5072734;28;20054;-57
2022/09/29 03:09:44;;;;;;;19.95;12.80;;;;;;;5.69;96.32;99913.63;5064629;28;20032;-59
2022/09/29 03:12:09;;;;;;;18.13;12.10;;;;;;;5.71;96.18;99916.09;5087108;28;20040;-56
2022/09/29 03:14:35;;;;;;;20.40;13.50;;;;;;;5.68;96.26;99919.88;5082220;28;20031;-57
2022/09/29 03:17:00;;;;;;;17.42;12.48;;;;;;;5.68;96.13;99917.25;5080870;28;20035;-59
2022/09/29 03:19:25;;;;;;;17.58;12.73;;;;;;;5.68;96.22;99917.25;5075309;28;20377;-57
2022/09/29 03:21:50;;;;;;;17.88;12.32;;;;;;;5.67;96.20;99920.81;5082296;28;20040;-59
2022/09/29 03:24:16;;;;;;;20.40;12.68;;;;;;;5.67;95.62;99915.56;5069023;28;20032;-59
2022/09/29 03:26:41;;;;;;;16.67;12.50;;;;;;;5.61;95.74;99919.66;5070358;28;20036;-58
2022/09/29 03:29:07;;;;;;;20.55;13.20;;;;;;;5.60;95.54;99919.78;5063622;28;20442;-56
2022/09/29 03:31:32;;;;;;;18.55;12.50;;;;;;;5.56;95.77;99918.44;5094272;28;20436;-57
2022/09/29 03:33:57;;;;;;;15.68;12.30;;;;;;;5.51;95.76;99914.47;5072969;28;20462;-56
2022/09/29 03:36:23;;;;;;;19.15;12.73;;;;;;;5.55;96.19;99924.69;5063234;28;20040;-57
2022/09/29 03:38:48;;;;;;;18.35;12.93;;;;;;;5.58;95.97;99919.13;5071398;28;20535;-56
2022/09/29 03:41:14;;;;;;;21.23;13.05;;;;;;;5.54;95.64;99923.03;5077953;28;20047;-56
2022/09/29 03:43:39;;;;;;;18.05;12.93;;;;;;;5.54;95.99;99923.03;5069576;28;20040;-57
2022/09/29 03:46:05;;;;;;;20.80;12.68;;;;;;;5.54;96.13;99923.03;5068445;28;20035;-59
2022/09/29 03:48:32;;;;;;;18.23;12.70;;;;;;;5.49;95.93;99924.28;5074403;28;20050;-57
2022/09/29 03:50:58;;;;;;;15.80;12.38;;;;;;;5.46;95.46;99921.97;5086023;28;20039;-59
2022/09/29 03:53:23;;;;;;;19.77;12.68;;;;;;;5.46;95.37;99927.25;5068443;28;21421;-56
2022/09/29 03:55:49;;;;;;;19.95;12.80;;;;;;;5.44;95.05;99926.56;5071931;28;20043;-57
2022/09/29 03:58:16;;;;;;;16.98;12.20;;;;;;;5.41;95.92;99920.75;5075767;28;20423;-59
2022/09/29 04:00:41;;;;;;;17.88;13.00;;;;;;;5.32;95.21;99927.78;5062765;28;20313;-57
2022/09/29 04:03:06;;;;;;;18.55;12.75;;;;;;;5.33;95.83;99926.78;5064421;28;20115;-60
2022/09/29 04:05:37;;;;;;;23.85;12.80;;;;;;;5.33;96.33;99934.69;5062898;28;20028;-58
2022/09/29 04:08:05;;;;;;;19.63;12.85;;;;;;;5.30;95.63;99934.97;5074358;28;20078;-57
2022/09/29 04:10:35;;;;;;;18.70;12.40;;;;;;;5.27;95.83;99935.28;5070635;28;20048;-60
2022/09/29 04:13:00;;;;;;;21.05;13.80;;;;;;;5.27;96.23;99935.28;5069097;28;20086;-57
2022/09/29 04:15:25;;;;;;;17.83;12.95;;;;;;;5.24;96.49;99937.22;5077778;28;20894;-57
2022/09/29 04:17:50;;;;;;;19.38;12.65;;;;;;;5.27;96.06;99930.84;5078162;28;20072;-57
2022/09/29 04:20:16;;;;;;;16.92;12.40;;;;;;;5.24;95.61;99941.66;5073731;28;20040;-59
2022/09/29 04:22:42;;;;;;;18.77;12.18;;;;;;;5.20;95.16;99935.88;5076309;28;20487;-57
2022/09/29 04:25:07;;;;;;;16.73;11.98;;;;;;;5.23;95.58;99948.72;5071524;28;20620;-57
2022/09/29 04:27:33;;;;;;;16.65;12.43;;;;;;;5.19;95.57;99949.16;5068076;28;20089;-57
2022/09/29 04:29:58;;;;;;;20.75;12.55;;;;;;;5.21;95.67;99948.03;5065289;28;20062;-57
2022/09/29 04:32:23;;;;;;;20.20;13.25;;;;;;;5.20;95.78;99951.66;5069457;28;20040;-57
2022/09/29 04:34:49;;;;;;;16.67;12.48;;;;;;;5.19;95.51;99951.78;5066706;28;20044;-58
2022/09/29 04:37:14;;;;;;;17.88;12.48;;;;;;;5.19;95.79;99949.16;5071044;28;20499;-57
2022/09/29 04:39:39;;;;;;;15.88;12.32;;;;;;;5.16;95.31;99952.91;5064455;28;20024;-59
2022/09/29 04:42:05;;;;;;;15.55;12.13;;;;;;;5.17;95.12;99951.94;5082940;28;20122;-58
2022/09/29 04:44:30;;;;;;;16.42;12.13;;;;;;;5.13;95.84;99958.44;5079517;28;20029;-56
2022/09/29 04:46:55;;;;;;;17.55;12.75;;;;;;;5.12;95.04;99954.16;5069889;28;20067;-56
2022/09/29 04:49:21;;;;;;;17.20;12.38;;;;;;;5.11;95.12;99963.88;5062874;28;20033;-56
2022/09/29 04:51:46;;;;;;;18.42;12.85;;;;;;;5.08;95.74;99963.34;5090619;28;20076;-56
2022/09/29 04:54:12;;;;;;;17.83;12.38;;;;;;;5.07;95.80;99952.00;5077394;28;20029;-59
2022/09/29 04:56:38;;;;;;;16.90;12.65;;;;;;;5.09;95.39;99959.75;5070396;28;20028;-58
2022/09/29 04:59:04;;;;;;;18.58;12.82;;;;;;;5.02;95.65;99954.22;5068710;28;20051;-59
2022/09/29 05:01:29;;;;;;;17.55;12.88;;;;;;;5.03;95.60;99960.31;5072193;28;20043;-56
2022/09/29 05:03:55;;;;;;;18.25;12.70;;;;;;;4.98;95.25;99964.22;5066265;28;20044;-57
2022/09/29 05:06:21;;;;;;;16.92;12.90;;;;;;;5.00;95.82;99966.69;5075645;28;20413;-57
2022/09/29 05:08:47;;;;;;;18.02;13.30;;;;;;;4.96;95.82;99963.53;5074096;28;20055;-56
2022/09/29 05:11:12;;;;;;;18.67;13.10;;;;;;;4.92;95.86;99964.78;5070160;28;20679;-57
2022/09/29 05:13:38;;;;;;;19.48;13.45;;;;;;;4.93;95.72;99976.97;5065877;28;20040;-57
2022/09/29 05:16:04;;;;;;;17.92;13.63;;;;;;;4.93;96.05;99981.41;5059552;28;20035;-57
2022/09/29 05:18:30;;;;;;;20.27;13.98;;;;;;;4.94;96.08;99980.41;5061108;28;20021;-59
2022/09/29 05:21:00;;;;;;;20.63;13.73;;;;;;;4.97;96.14;99980.13;5075348;28;20035;-57
2022/09/29 05:23:27;;;;;;;19.50;14.38;;;;;;;5.01;96.14;99989.38;5066515;28;20040;-56
2022/09/29 05:25:52;;;;;;;19.95;13.50;;;;;;;5.01;96.48;99988.53;5071951;28;20037;-59
2022/09/29 05:28:17;;;;;;;18.98;13.45;;;;;;;5.03;96.23;99991.84;5066995;28;20123;-57
2022/09/29 05:30:42;;;;;;;18.95;13.98;;;;;;;5.02;96.66;99995.47;5082004;28;20532;-56
2022/09/29 05:33:08;;;;;;;18.33;13.60;;;;;;;5.04;96.27;99988.25;5069587;28;20032;-58
2022/09/29 05:35:34;;;;;;;18.13;13.77;;;;;;;5.01;95.72;99992.00;5076164;28;20111;-56
2022/09/29 05:37:59;;;;;;;18.55;14.07;;;;;;;4.96;96.00;99988.97;5076018;28;20122;-57
2022/09/29 05:40:25;;;;;;;21.77;14.25;;;;;;;5.02;95.89;99995.47;5070977;28;20029;-57
2022/09/29 05:42:51;;;;;;;19.55;13.77;;;;;;;4.96;96.06;99995.06;5078872;28;20036;-57
2022/09/29 05:45:17;;;;;;;19.15;14.45;;;;;;;4.94;96.88;99994.38;5080087;28;20047;-56
2022/09/29 05:47:44;;;;;;;19.10;14.55;;;;;;;4.95;96.47;99996.00;5069874;28;20461;-58
2022/09/29 05:50:10;;;;;;;19.92;13.80;;;;;;;5.00;96.77;99997.38;5066914;28;20041;-57
2022/09/29 05:52:36;;;;;;;20.08;15.00;;;;;;;4.96;96.49;100008.22;5081171;28;20039;-59
2022/09/29 05:55:02;;;;;;;17.98;14.60;;;;;;;4.87;95.81;100001.19;5063392;28;20032;-63
2022/09/29 05:57:27;;;;;;;19.45;14.27;;;;;;;4.93;96.57;100008.47;5065736;28;20032;-58
2022/09/29 05:59:53;;;;;;;19.63;14.85;;;;;;;4.91;96.04;100010.44;5066361;28;20037;-59
2022/09/29 06:02:18;;;;;;;19.35;14.40;;;;;;;4.88;95.36;100010.72;5066960;28;20522;-57
2022/09/29 06:04:43;;;;;;;25.20;15.18;;;;;;;4.92;96.73;100013.88;5066034;28;20378;-57
2022/09/29 06:07:08;;;;;;;20.45;15.43;;;;;;;4.93;96.77;100015.56;5065335;28;20027;-58
2022/09/29 06:09:35;;;;;;;20.10;15.80;;;;;;;4.93;96.86;100013.75;5050374;28;20629;-58
2022/09/29 06:12:01;;;;;;;23.45;15.60;;;;;;;4.96;97.56;100023.97;5074953;28;20494;-60
2022/09/29 06:14:26;;;;;;;21.92;15.55;;;;;;;5.00;97.49;100018.41;5063278;28;20026;-59
2022/09/29 06:16:52;;;;;;;23.15;15.68;;;;;;;5.00;98.04;100023.66;5063516;28;20032;-61
2022/09/29 06:19:18;;;;;;;22.83;17.23;;;;;;;5.07;97.12;100028.19;5063332;28;20020;-58
2022/09/29 06:21:43;;;;;;;23.67;16.95;;;;;;;5.06;97.79;100023.94;5072805;28;20016;-58
2022/09/29 06:24:08;;;;;;;22.15;16.60;;;;;;;5.09;97.60;100028.06;5064306;28;20471;-61
2022/09/29 06:26:34;;;;;;;22.50;17.40;;;;;;;5.11;98.76;100026.94;5064377;28;20024;-60
2022/09/29 06:28:59;;;;;;;23.80;17.60;;;;;;;5.15;99.08;100030.09;5064457;28;20487;-61
2022/09/29 06:31:26;;;;;;;23.98;18.40;;;;;;;5.17;99.17;100025.53;5068804;28;20028;-61
2022/09/29 06:33:54;;;;;;;25.08;18.50;;;;;;;5.20;99.30;100033.13;5045179;28;20446;-59
2022/09/29 06:39:07;;;;;;;26.08;19.38;;;;;;;5.25;100.00;100037.94;5062645;28;20614;-59
2022/09/29 06:41:34;;;;;;;27.23;19.33;;;;;;;5.32;100.00;100046.09;5071805;28;20025;-57
2022/09/29 06:44:00;;;;;;;27.77;19.13;;;;;;;5.34;100.00;100046.75;5064985;28;20035;-58
2022/09/29 06:46:25;;;;;;;28.00;19.30;;;;;;;5.38;99.89;100048.13;5066294;28;20375;-59
2022/09/29 06:48:52;;;;;;;23.40;18.45;;;;;;;5.40;99.68;100043.53;5065753;28;20021;-60
2022/09/29 06:51:17;;;;;;;26.95;18.92;;;;;;;5.45;100.00;100046.56;5071243;28;20056;-57
2022/09/29 06:53:44;;;;;;;26.88;19.67;;;;;;;5.47;100.00;100052.47;5063713;28;20059;-58
2022/09/29 06:56:09;;;;;;;27.67;19.63;;;;;;;5.51;100.00;100053.84;5061106;28;20058;-58
2022/09/29 06:58:34;;;;;;;25.25;19.42;;;;;;;5.56;100.00;100055.19;5061050;28;20127;-57
2022/09/29 07:01:01;;;;;;;30.05;18.98;;;;;;;5.61;100.00;100061.69;5069275;28;20024;-57
2022/09/29 07:03:27;;;;;;;25.77;19.02;;;;;;;5.64;100.00;100057.94;5059879;28;20411;-58
2022/09/29 07:05:52;;;;;;;28.08;19.65;;;;;;;5.69;100.00;100060.09;5062811;28;20020;-58
2022/09/29 07:08:18;;;;;;;26.88;19.63;;;;;;;5.72;100.00;100060.63;5066298;28;20488;-57
2022/09/29 07:10:45;;;;;;;28.85;20.20;;;;;;;5.77;100.00;100063.66;5070133;28;20042;-57
2022/09/29 07:13:11;;;;;;;27.60;18.85;;;;;;;5.87;100.00;100068.03;5060625;28;20059;-58
2022/09/29 07:15:36;;;;;;;25.63;18.70;;;;;;;5.91;100.00;100070.19;5065718;28;20548;-57
2022/09/29 07:18:03;;;;;;;29.50;19.63;;;;;;;5.97;100.00;100074.03;5069561;28;20029;-57
2022/09/29 07:20:29;;;;;;;27.70;19.15;;;;;;;6.03;100.00;100068.19;5072034;28;20035;-59
2022/09/29 07:22:55;;;;;;;28.95;19.25;;;;;;;6.10;100.00;100073.69;5054366;28;20032;-60
2022/09/29 07:25:20;;;;;;;22.60;17.42;;;;;;;6.12;99.99;100069.09;5059713;28;20036;-59
2022/09/29 07:27:46;;;;;;;26.67;18.60;;;;;;;6.20;100.00;100084.13;5078181;28;20028;-58
2022/09/29 07:30:12;;;;;;;27.25;18.40;;;;;;;6.22;99.66;100079.53;5070489;28;20510;-60
2022/09/29 07:32:37;;;;;;;25.35;18.77;;;;;;;6.30;100.00;100082.25;5075296;28;20043;-57
2022/09/29 07:35:04;;;;;;;28.67;19.05;;;;;;;6.37;100.00;100081.66;5070740;28;20025;-60
2022/09/29 07:37:29;;;;;;;27.05;18.42;;;;;;;6.41;100.00;100085.63;5071997;28;20036;-59
2022/09/29 07:39:54;;;;;;;25.55;17.77;;;;;;;6.46;100.00;100089.44;5064701;28;20029;-62
2022/09/29 07:42:20;;;;;;;26.38;18.90;;;;;;;6.52;99.96;100098.53;5078505;28;20492;-58
2022/09/29 07:44:46;;;;;;;27.42;18.48;;;;;;;6.57;100.00;100088.38;5066494;28;20032;-61
2022/09/29 07:47:12;;;;;;;26.48;18.17;;;;;;;6.63;99.61;100094.00;5064118;28;20462;-60
2022/09/29 07:49:38;;;;;;;26.48;18.20;;;;;;;6.67;100.00;100084.81;5063066;28;20032;-61
2022/09/29 07:52:03;;;;;;;24.95;17.95;;;;;;;6.74;100.00;100091.13;5090889;28;20137;-58
2022/09/29 07:54:30;;;;;;;25.23;17.58;;;;;;;6.80;100.00;100098.41;5078736;28;20647;-57
2022/09/29 07:56:55;;;;;;;24.88;17.10;;;;;;;6.84;100.00;100094.50;5071603;28;20033;-60
2022/09/29 07:59:21;;;;;;;25.48;17.90;;;;;;;6.91;100.00;100104.41;5070779;28;20463;-60
2022/09/29 08:01:46;;;;;;;26.98;18.63;;;;;;;6.96;100.00;100105.59;5067881;28;20028;-60
2022/09/29 08:04:11;;;;;;;25.50;18.10;;;;;;;7.00;100.00;100111.38;5066226;28;20135;-58
2022/09/29 08:06:37;;;;;;;24.27;17.88;;;;;;;7.06;99.87;100110.75;5062871;28;20558;-59
2022/09/29 08:09:02;;;;;;;23.95;17.02;;;;;;;7.11;99.51;100108.47;5063994;28;20036;-62
2022/09/29 08:11:28;;;;;;;25.67;17.15;;;;;;;7.16;99.37;100112.47;5077305;28;20033;-59
2022/09/29 08:13:53;;;;;;;28.00;17.30;;;;;;;7.22;99.58;100119.75;5069846;28;20483;-58
2022/09/29 08:16:19;;;;;;;26.02;17.92;;;;;;;7.28;99.53;100116.47;5078003;28;20443;-58
2022/09/29 08:18:44;;;;;;;28.20;17.65;;;;;;;7.36;100.00;100121.78;5081180;28;20559;-59
2022/09/29 08:21:11;;;;;;;24.40;16.83;;;;;;;7.40;99.46;100128.38;5070819;28;20039;-60
2022/09/29 08:23:39;;;;;;;23.98;16.80;;;;;;;7.47;99.21;100127.75;5061846;28;20082;-58
2022/09/29 08:26:06;;;;;;;26.65;16.92;;;;;;;7.48;99.53;100132.88;5064074;28;20068;-59
2022/09/29 08:28:33;;;;;;;25.80;17.65;;;;;;;7.47;99.19;100127.75;5072900;28;20037;-62
2022/09/29 08:31:08;;;;;;;26.20;18.02;;;;;;;7.38;99.50;100130.38;5079098;28;20032;-61
2022/09/29 08:33:34;;;;;;;23.77;17.42;;;;;;;7.36;99.01;100142.88;5067521;28;20518;-58
2022/09/29 08:36:00;;;;;;;26.83;18.00;;;;;;;7.31;99.20;100139.91;5067502;28;20039;-62
2022/09/29 08:38:26;;;;;;;24.25;17.15;;;;;;;7.28;99.06;100145.47;5076443;28;20044;-62
2022/09/29 08:40:54;;;;;;;23.48;17.05;;;;;;;7.23;98.84;100153.88;5069253;28;20035;-61
2022/09/29 08:43:41;;;;;;;26.50;17.45;;;;;;;7.23;98.87;100145.13;5060350;28;20029;-60
2022/09/29 08:46:37;;;;;;;29.70;17.35;;;;;;;7.23;98.67;100158.31;5069575;28;20033;-59
2022/09/29 08:49:08;;;;;;;25.33;16.80;;;;;;;7.19;98.71;100156.94;5070784;28;20113;-59
2022/09/29 08:51:47;;;;;;;27.40;17.23;;;;;;;7.20;98.83;100159.44;5086324;28;20109;-59
2022/09/29 08:54:33;;;;;;;24.95;17.50;;;;;;;7.22;99.06;100156.66;5077403;28;20125;-61
2022/09/29 08:57:00;;;;;;;28.15;17.58;;;;;;;7.24;98.84;100159.97;5066811;28;20056;-60
2022/09/29 08:59:28;;;;;;;24.17;16.67;;;;;;;7.26;98.11;100163.28;5077627;28;20105;-60
2022/09/29 09:02:16;;;;;;;26.15;18.02;;;;;;;7.30;98.94;100164.59;5077220;28;20027;-59
2022/09/29 09:05:01;;;;;;;24.80;17.58;;;;;;;7.34;99.11;100160.69;5027364;28;20048;-62
2022/09/29 09:07:36;;;;;;;24.00;17.30;;;;;;;7.42;98.69;100169.59;5067685;28;20051;-57
2022/09/29 09:10:32;;;;;;;27.75;17.23;;;;;;;7.47;99.14;100164.69;5068287;28;20119;-60
2022/09/29 09:13:09;;;;;;;23.90;17.05;;;;;;;7.55;98.50;100167.34;5032217;28;20048;-58
2022/09/29 09:16:00;;;;;;;25.70;17.05;;;;;;;7.63;98.87;100175.31;5064137;28;20060;-58
2022/09/29 09:18:50;;;;;;;25.13;16.90;;;;;;;7.73;98.26;100179.63;5074133;28;20055;-59
2022/09/29 09:21:20;;;;;;;24.98;16.77;;;;;;;7.78;98.29;100172.06;5088561;28;20054;-57
2022/09/29 09:24:00;;;;;;;26.38;15.85;;;;;;;7.86;97.42;100179.19;5081329;28;20043;-58
2022/09/29 09:26:45;;;;;;;25.00;17.38;;;;;;;7.97;98.21;100175.44;5062856;28;20098;-58
2022/09/29 09:29:29;;;;;;;23.75;16.55;;;;;;;8.07;96.20;100176.13;5064355;28;20037;-60
2022/09/29 09:32:02;;;;;;;23.73;16.38;;;;;;;8.21;96.81;100172.84;5079467;28;20420;-57
2022/09/29 09:34:37;;;;;;;21.02;15.02;;;;;;;8.38;96.64;100172.06;5060804;28;20040;-58
2022/09/29 09:37:13;;;;;;;20.65;14.32;;;;;;;8.46;95.13;100172.91;5060110;28;20396;-58
2022/09/29 09:39:53;;;;;;;20.30;14.55;;;;;;;8.57;95.30;100179.69;5060713;28;20036;-58
2022/09/29 09:42:24;;;;;;;20.08;12.80;;;;;;;8.66;95.01;100180.53;5079768;28;20035;-57
2022/09/29 09:44:56;;;;;;;18.75;13.68;;;;;;;8.74;95.07;100180.53;5060780;28;20438;-57
2022/09/29 09:47:26;;;;;;;16.70;11.10;;;;;;;8.85;95.02;100173.25;5063003;28;20637;-58
2022/09/29 09:49:56;;;;;;;19.42;11.02;;;;;;;8.93;94.79;100175.88;5080837;28;20038;-58
2022/09/29 09:52:40;;;;;;;20.35;11.55;;;;;;;9.01;93.95;100180.34;5073368;28;20043;-58
2022/09/29 09:55:19;;;;;;;17.48;10.90;;;;;;;9.09;93.41;100180.31;5060203;28;20064;-59
2022/09/29 09:57:56;;;;;;;16.23;9.65;;;;;;;9.14;92.25;100179.84;5073423;28;20031;-60
2022/09/29 10:00:31;;;;;;;14.27;9.02;;;;;;;9.26;92.23;100186.41;5083485;28;20064;-59
2022/09/29 10:03:01;;;;;;;14.65;9.38;;;;;;;9.32;91.42;100184.09;5069043;28;20038;-58
2022/09/29 10:05:37;;;;;;;13.88;9.55;;;;;;;9.38;91.97;100183.41;5062502;28;20492;-59
2022/09/29 10:08:10;;;;;;;12.70;8.27;;;;;;;9.44;90.35;100182.75;5067890;28;20067;-58
2022/09/29 10:10:35;;;;;;;13.18;8.50;;;;;;;9.53;90.72;100192.28;5080635;28;20647;-58
2022/09/29 10:13:04;;;;;;;11.23;7.85;;;;;;;9.63;88.79;100186.78;5078925;28;20028;-58
2022/09/29 10:15:39;;;;;;;10.93;7.45;;;;;;;9.68;89.22;100183.66;5062273;28;20401;-58
2022/09/29 10:18:16;;;;;;;8.18;5.78;;;;;;;9.76;87.79;100186.25;5066481;28;20514;-60
2022/09/29 10:20:42;;;;;;;9.07;6.20;;;;;;;9.87;89.45;100189.53;5084911;28;20028;-59
2022/09/29 10:23:24;;;;;;;7.57;5.55;;;;;;;9.94;87.81;100198.41;5066629;28;20031;-59
2022/09/29 10:25:54;;;;;;;6.65;5.10;;;;;;;10.00;85.86;100196.88;5074491;28;20036;-60
2022/09/29 10:28:21;;;;;;;7.05;5.75;;;;;;;10.10;86.10;100194.84;5060285;28;20451;-59
2022/09/29 10:30:46;;;;;;;9.07;5.80;;;;;;;10.16;86.49;100202.09;5069950;28;20031;-60
2022/09/29 10:33:16;;;;;;;10.65;6.22;;;;;;;10.21;86.12;100193.63;5062746;28;20044;-58
2022/09/29 10:35:43;;;;;;;9.77;6.40;;;;;;;10.29;87.44;100201.53;5060725;28;20041;-58
2022/09/29 10:38:23;;;;;;;10.00;6.00;;;;;;;10.34;85.29;100199.19;5059958;28;20112;-61
2022/09/29 10:40:57;;;;;;;10.40;5.65;;;;;;;10.41;85.03;100203.78;5085000;28;20410;-58
2022/09/29 10:43:25;;;;;;;6.65;4.72;;;;;;;10.45;82.72;100211.25;5073971;28;20388;-58
2022/09/29 10:45:57;;;;;;;8.05;4.90;;;;;;;10.54;83.38;100212.00;5068012;28;20475;-58
2022/09/29 10:48:22;;;;;;;8.25;5.40;;;;;;;10.59;82.76;100207.00;5077894;28;20097;-60
2022/09/29 10:50:53;;;;;;;9.35;5.82;;;;;;;10.65;81.83;100204.66;5068171;28;20452;-58
2022/09/29 10:53:24;;;;;;;7.53;5.70;;;;;;;10.73;80.29;100205.41;5063900;28;20590;-58
2022/09/29 10:55:54;;;;;;;9.65;5.97;;;;;;;10.75;80.26;100208.69;5079512;28;20043;-58
2022/09/29 10:58:27;;;;;;;8.00;5.18;;;;;;;10.81;81.81;100209.81;5077825;28;20024;-60
2022/09/29 11:01:12;;;;;;;9.35;5.57;;;;;;;10.91;80.78;100209.56;5071538;28;20134;-59
2022/09/29 11:03:45;;;;;;;8.05;5.28;;;;;;;10.97;81.74;100218.63;5059840;28;20348;-58
2022/09/29 11:06:12;;;;;;;8.50;5.38;;;;;;;10.98;80.07;100209.66;5059387;28;20470;-58
2022/09/29 11:09:02;;;;;;;7.03;5.40;;;;;;;11.03;81.40;100217.91;5077871;28;20572;-58
2022/09/29 11:11:34;;;;;;;7.72;5.72;;;;;;;11.12;80.04;100219.50;5068136;28;20043;-58
2022/09/29 11:13:59;;;;;;;7.20;4.82;;;;;;;11.13;79.48;100213.19;5075030;28;20475;-58
2022/09/29 11:16:30;;;;;;;8.35;5.28;;;;;;;11.23;79.58;100217.41;5082769;28;20036;-58
2022/09/29 11:19:08;;;;;;;8.80;5.60;;;;;;;11.23;79.96;100217.41;5083829;28;20142;-58
2022/09/29 11:22:10;;;;;;;7.82;5.60;;;;;;;11.29;82.06;100216.66;5091316;28;20034;-59
2022/09/29 11:24:48;;;;;;;6.68;5.50;;;;;;;11.29;81.37;100220.16;5064339;28;20028;-59
2022/09/29 11:27:31;;;;;;;8.90;6.15;;;;;;;11.25;82.93;100210.09;5062522;28;20086;-61
2022/09/29 11:29:59;;;;;;;9.38;5.40;;;;;;;11.22;81.98;100216.59;5063171;28;20047;-58
2022/09/29 11:32:30;;;;;;;13.15;6.03;;;;;;;11.16;81.46;100212.81;5082121;28;20403;-58
2022/09/29 11:35:32;;;;;;;8.65;5.90;;;;;;;11.13;81.25;100222.97;5075912;28;20032;-58
2022/09/29 11:37:58;;;;;;;9.98;6.32;;;;;;;11.06;82.99;100224.69;5082638;28;20028;-59